Time;durP1;ratioP1;P1;durP2;ratioP2;P2;SDS_P1;SDS_P2;PMS_P1;PMS_P2;Temp;Humidity;BMP_temperature;BMP_pressure;BME280_temperature;BME280_humidity;BME280_pressure;Samples;Min_cycle;Max_cycle;Signal;HPM_P1;HPM_P2
2022/03/29 00:01:57;;;;;;;33.67;21.05;;;6.40;99.90;;;;;;4946890;28;20170;-87
2022/03/29 00:04:24;;;;;;;34.75;21.45;;;6.40;99.90;;;;;;4977972;28;20101;-87
2022/03/29 00:06:50;;;;;;;35.15;21.48;;;6.40;99.90;;;;;;4980910;28;20044;-88
2022/03/29 00:09:16;;;;;;;33.05;21.10;;;6.40;99.90;;;;;;4963027;28;20129;-87
2022/03/29 00:11:42;;;;;;;33.45;20.50;;;6.50;99.90;;;;;;4996013;28;20117;-87
2022/03/29 00:14:09;;;;;;;34.47;20.65;;;6.50;99.90;;;;;;4948499;28;20039;-86
2022/03/29 00:16:35;;;;;;;32.17;21.10;;;6.50;99.90;;;;;;4950140;28;20088;-87
2022/03/29 00:19:01;;;;;;;33.72;20.67;;;6.50;99.90;;;;;;4980930;28;20132;-89
2022/03/29 00:21:27;;;;;;;33.83;20.90;;;;;;;;;;4977317;28;20034;-86
2022/03/29 00:23:53;;;;;;;43.30;24.05;;;;;;;;;;4965763;28;20045;-87
2022/03/29 00:26:20;;;;;;;38.67;21.98;;;;;;;;;;4990777;28;20042;-88
2022/03/29 00:28:47;;;;;;;36.72;21.80;;;;;;;;;;4980740;28;20050;-87
2022/03/29 00:31:16;;;;;;;37.20;23.40;;;;;;;;;;4955351;28;20070;-87
2022/03/29 00:33:42;;;;;;;42.30;24.73;;;;;;;;;;4958619;28;20054;-86
2022/03/29 00:36:09;;;;;;;39.83;24.15;;;;;;;;;;4945856;28;20115;-86
2022/03/29 00:38:35;;;;;;;40.80;24.55;;;;;;;;;;4964054;28;20042;-86
2022/03/29 00:41:02;;;;;;;41.20;23.70;;;;;;;;;;4965225;28;20039;-88
2022/03/29 00:43:28;;;;;;;46.97;26.65;;;;;;;;;;4980214;28;20384;-87
2022/03/29 00:45:54;;;;;;;41.20;24.02;;;;;;;;;;4966647;28;20038;-86
2022/03/29 00:48:20;;;;;;;40.85;24.38;;;;;;;;;;4965700;28;20037;-87
2022/03/29 00:50:47;;;;;;;37.88;24.40;;;;;;;;;;4966988;28;20050;-87
2022/03/29 00:53:13;;;;;;;40.42;25.05;;;;;;;;;;4983502;28;20049;-89
2022/03/29 00:55:41;;;;;;;39.60;24.98;;;;;;;;;;4978170;28;20129;-87
2022/03/29 00:58:07;;;;;;;46.30;26.17;;;;;;;;;;4974834;28;20340;-87
2022/03/29 01:00:37;;;;;;;39.05;23.92;;;;;;;;;;4940983;28;20069;-87
2022/03/29 01:03:03;;;;;;;43.75;24.58;;;;;;;;;;4982879;28;20180;-88
2022/03/29 01:05:30;;;;;;;39.50;24.40;;;;;;;;;;4960119;28;20057;-87
2022/03/29 01:07:57;;;;;;;42.35;23.27;;;;;;;;;;4956829;28;20080;-87
2022/03/29 01:10:23;;;;;;;42.80;23.13;;;;;;;;;;4960445;28;20046;-88
2022/03/29 01:12:50;;;;;;;42.70;22.75;;;;;;;;;;4962293;28;20427;-86
2022/03/29 01:15:16;;;;;;;39.80;22.92;;;;;;;;;;4972876;28;22135;-87
2022/03/29 01:17:43;;;;;;;36.08;22.30;;;;;;;;;;4975178;28;20046;-87
2022/03/29 01:20:09;;;;;;;41.45;22.42;;;;;;;;;;4991973;28;20036;-87
2022/03/29 01:22:36;;;;;;;43.00;22.70;;;;;;;;;;4957934;28;20559;-88
2022/03/29 01:25:02;;;;;;;42.30;23.65;;;;;;;;;;4955964;28;20049;-88
2022/03/29 01:27:31;;;;;;;38.28;22.65;;;;;;;;;;4942489;28;20419;-87
2022/03/29 01:29:59;;;;;;;42.22;23.75;;;;;;;;;;4958326;28;20042;-87
2022/03/29 01:32:29;;;;;;;42.17;22.30;;;;;;;;;;4989403;28;20566;-87
2022/03/29 01:34:57;;;;;;;39.25;21.90;;;;;;;;;;4954967;28;20069;-87
2022/03/29 01:37:24;;;;;;;43.85;23.63;;;;;;;;;;4961552;28;20495;-87
2022/03/29 01:39:50;;;;;;;46.65;22.02;;;;;;;;;;4948781;28;20057;-87
2022/03/29 01:42:18;;;;;;;38.58;21.95;;;;;;;;;;4953562;28;20055;-87
2022/03/29 01:44:44;;;;;;;37.58;21.20;;;;;;;;;;4999455;28;20887;-86
2022/03/29 01:47:10;;;;;;;39.40;21.85;;;;;;;;;;4994394;28;20069;-86
2022/03/29 01:49:37;;;;;;;37.10;21.52;;;;;;;;;;4978094;28;20123;-87
2022/03/29 01:52:04;;;;;;;44.45;23.05;;;;;;;;;;4972392;28;20034;-85
2022/03/29 01:54:31;;;;;;;41.15;21.63;;;;;;;;;;4981213;28;20043;-86
2022/03/29 01:56:57;;;;;;;44.00;22.23;;;;;;;;;;4944628;28;20034;-88
2022/03/29 01:59:23;;;;;;;41.45;23.13;;;;;;;;;;4996513;28;20166;-87
2022/03/29 02:01:50;;;;;;;37.97;21.60;;;;;;;;;;4981931;28;20043;-88
2022/03/29 02:04:17;;;;;;;42.20;23.40;;;;;;;;;;4982590;28;20042;-87
2022/03/29 02:06:43;;;;;;;42.50;22.90;;;;;;;;;;4966133;28;20155;-87
2022/03/29 02:09:12;;;;;;;36.28;21.73;;;;;;;;;;4970144;28;20746;-87
2022/03/29 02:11:42;;;;;;;44.78;23.88;;;;;;;;;;4977757;28;20048;-87
2022/03/29 02:14:08;;;;;;;39.97;22.58;;;;;;;;;;4968179;28;20038;-87
2022/03/29 02:16:35;;;;;;;40.35;22.13;;;;;;;;;;4984721;28;20065;-88
2022/03/29 02:19:01;;;;;;;40.78;23.13;;;;;;;;;;4971043;28;20034;-87
2022/03/29 02:21:27;;;;;;;41.33;22.55;;;;;;;;;;4955370;28;22182;-87
2022/03/29 02:23:53;;;;;;;39.72;21.83;;;;;;;;;;4953529;28;20052;-88
2022/03/29 02:26:19;;;;;;;41.10;22.25;;;;;;;;;;4955266;28;20046;-87
2022/03/29 02:28:45;;;;;;;41.40;22.90;;;;;;;;;;4989705;28;20052;-86
2022/03/29 02:31:11;;;;;;;44.78;22.98;;;;;;;;;;4980274;28;20042;-87
2022/03/29 02:33:37;;;;;;;42.80;23.40;;;;;;;;;;4956929;28;20491;-88
2022/03/29 02:36:04;;;;;;;42.13;23.13;;;;;;;;;;4975778;28;20074;-89
2022/03/29 02:38:30;;;;;;;43.08;23.30;;;;;;;;;;4983636;28;20035;-87
2022/03/29 02:40:58;;;;;;;44.53;23.02;;;;;;;;;;4985412;28;20038;-87
2022/03/29 02:43:25;;;;;;;41.05;22.73;;;;;;;;;;4975551;28;20038;-87
2022/03/29 02:45:51;;;;;;;38.63;21.95;;;;;;;;;;4952150;28;20062;-88
2022/03/29 02:48:17;;;;;;;41.75;22.00;;;;;;;;;;4961258;28;20034;-87
2022/03/29 02:50:43;;;;;;;40.35;22.58;;;;;;;;;;4992334;28;20043;-88
2022/03/29 02:53:11;;;;;;;42.03;22.10;;;;;;;;;;4948901;28;20039;-89
2022/03/29 02:55:38;;;;;;;40.03;20.70;;;;;;;;;;4980767;28;20042;-88
2022/03/29 02:58:04;;;;;;;42.47;21.92;;;;;;;;;;4973366;28;20069;-87
2022/03/29 03:00:30;;;;;;;36.55;21.23;;;;;;;;;;4969133;28;20050;-87
2022/03/29 03:02:57;;;;;;;37.65;20.85;;;;;;;;;;4980213;28;20053;-88
2022/03/29 03:05:26;;;;;;;41.83;22.45;;;;;;;;;;4982264;28;20522;-87
2022/03/29 03:07:53;;;;;;;36.95;20.50;;;;;;;;;;4981653;28;20411;-88
2022/03/29 03:10:19;;;;;;;39.85;22.13;;;;;;;;;;4956830;28;20053;-87
2022/03/29 03:12:47;;;;;;;41.97;22.80;;;;;;;;;;4964942;28;20046;-88
2022/03/29 03:15:14;;;;;;;36.45;21.10;;;;;;;;;;4968496;28;20045;-88
2022/03/29 03:17:40;;;;;;;36.10;20.38;;;;;;;;;;4959405;28;20121;-86
2022/03/29 03:20:07;;;;;;;38.13;22.92;;;;;;;;;;4980694;28;20062;-87
2022/03/29 03:22:35;;;;;;;41.22;22.70;;;;;;;;;;4964521;28;20043;-87
2022/03/29 03:25:02;;;;;;;41.13;22.33;;;;;;;;;;4958999;28;20034;-88
2022/03/29 03:27:28;;;;;;;38.38;21.40;;;;;;;;;;4964787;28;20045;-87
2022/03/29 03:29:55;;;;;;;38.17;22.20;;;;;;;;;;4953969;28;20046;-87
2022/03/29 03:32:21;;;;;;;41.83;22.45;;;;;;;;;;4977823;28;20038;-87
2022/03/29 03:34:47;;;;;;;32.15;21.00;;;;;;;;;;4964509;28;20070;-88
2022/03/29 03:37:13;;;;;;;39.25;22.50;;;;;;;;;;4982873;28;20038;-87
2022/03/29 03:39:39;;;;;;;40.80;22.23;;;;;;;;;;4949934;28;20573;-87
2022/03/29 03:42:06;;;;;;;40.60;22.77;;;;;;;;;;4961729;28;20515;-87
2022/03/29 03:44:32;;;;;;;38.75;22.35;;;;;;;;;;4961697;28;20046;-89
2022/03/29 03:47:00;;;;;;;40.60;22.20;;;;;;;;;;4974145;28;20057;-87
2022/03/29 03:49:26;;;;;;;46.70;23.38;;;;;;;;;;4993353;28;20530;-88
2022/03/29 03:51:53;;;;;;;40.88;22.27;;;;;;;;;;4978845;28;20113;-88
2022/03/29 03:54:19;;;;;;;38.90;21.65;;;;;;;;;;4951532;28;20065;-89
2022/03/29 03:56:46;;;;;;;42.30;22.67;;;;;;;;;;4995807;28;20042;-87
2022/03/29 03:59:12;;;;;;;40.88;23.00;;;;;;;;;;4968175;28;20046;-87
2022/03/29 04:01:38;;;;;;;43.92;23.33;;;;;;;;;;4966115;28;20042;-87
2022/03/29 04:04:04;;;;;;;43.53;23.35;;;;;;;;;;4976812;28;20046;-87
2022/03/29 04:06:30;;;;;;;39.17;24.15;;;;;;;;;;4944304;28;20074;-87
2022/03/29 04:08:57;;;;;;;37.25;21.88;;;;;;;;;;4980670;28;20038;-87
2022/03/29 04:11:23;;;;;;;38.63;23.20;;;;;;;;;;4981945;28;20074;-87
2022/03/29 04:13:49;;;;;;;41.33;22.92;;;;;;;;;;4958397;28;20046;-87
2022/03/29 04:16:15;;;;;;;39.38;22.73;;;;;;;;;;4950082;28;20078;-87
2022/03/29 04:18:41;;;;;;;37.65;22.15;;;;;;;;;;4978062;28;20050;-87
2022/03/29 04:21:09;;;;;;;39.35;22.05;;;;;;;;;;4962552;28;20116;-87
2022/03/29 04:23:36;;;;;;;42.78;23.40;;;;;;;;;;4952918;28;20100;-88
2022/03/29 04:26:03;;;;;;;36.95;21.92;;;;;;;;;;4964701;28;20041;-87
2022/03/29 04:28:31;;;;;;;38.75;22.25;;;;;;;;;;4977519;28;20037;-88
2022/03/29 04:30:58;;;;;;;43.17;24.35;;;;;;;;;;4993022;28;20526;-87
2022/03/29 04:33:25;;;;;;;40.80;22.67;;;;;;;;;;4984328;28;20041;-87
2022/03/29 04:35:51;;;;;;;41.42;24.05;;;;;;;;;;4972673;28;20038;-87
2022/03/29 04:38:23;;;;;;;39.88;22.83;;;;;;;;;;4972031;28;20046;-87
2022/03/29 04:40:49;;;;;;;42.60;23.20;;;;;;;;;;4974029;28;20042;-87
2022/03/29 04:43:16;;;;;;;47.47;24.85;;;;;;;;;;4961297;28;20422;-87
2022/03/29 04:45:42;;;;;;;44.47;24.17;;;;;;;;;;4970852;28;20043;-86
2022/03/29 04:48:09;;;;;;;46.22;24.77;;;;;;;;;;4966680;28;20043;-86
2022/03/29 04:50:36;;;;;;;44.97;25.45;;;;;;;;;;4997818;28;20125;-87
2022/03/29 04:53:02;;;;;;;50.13;26.00;;;;;;;;;;4962809;28;20065;-87
2022/03/29 04:55:28;;;;;;;47.08;26.27;;;;;;;;;;4970723;28;20431;-87
2022/03/29 04:57:54;;;;;;;43.17;24.95;;;;;;;;;;4983264;28;20111;-87
2022/03/29 05:00:21;;;;;;;49.70;26.35;;;;;;;;;;4985546;28;20034;-87
2022/03/29 05:02:48;;;;;;;49.40;25.88;;;;;;;;;;4966730;28;20121;-88
2022/03/29 05:05:14;;;;;;;51.40;26.48;;;;;;;;;;5002691;28;20042;-87
2022/03/29 05:07:44;;;;;;;53.78;28.25;;;;;;;;;;4968292;28;20046;-87
2022/03/29 05:10:11;;;;;;;54.63;27.48;;;;;;;;;;4973146;28;20046;-86
2022/03/29 05:12:41;;;;;;;53.65;26.73;;;;;;;;;;5001499;28;20089;-87
2022/03/29 05:15:08;;;;;;;54.22;27.38;;;;;;;;;;4964164;28;20065;-86
2022/03/29 05:17:35;;;;;;;55.72;26.98;;;;;;;;;;4961499;28;20046;-87
2022/03/29 05:20:02;;;;;;;52.65;27.35;;;;;;;;;;4992983;28;20034;-87
2022/03/29 05:22:28;;;;;;;55.15;27.40;;;;;;;;;;4966605;28;20500;-89
2022/03/29 05:24:55;;;;;;;50.28;27.48;;;;;;;;;;4947920;28;20042;-86
2022/03/29 05:27:21;;;;;;;54.17;27.90;;;;;;;;;;4984652;28;20104;-89
2022/03/29 05:29:47;;;;;;;57.08;29.70;;;;;;;;;;4977207;28;20044;-90
2022/03/29 05:32:18;;;;;;;56.47;29.40;;;;;;;;;;4982683;28;20038;-87
2022/03/29 05:34:45;;;;;;;60.08;30.73;;;;;;;;;;4986964;28;20090;-87
2022/03/29 05:37:12;;;;;;;64.63;31.30;;;;;;;;;;4992828;28;20101;-87
2022/03/29 05:39:40;;;;;;;55.33;29.98;;;;;;;;;;4973394;28;20039;-88
2022/03/29 05:42:06;;;;;;;53.60;28.50;;;;;;;;;;5001196;28;20046;-89
2022/03/29 05:44:32;;;;;;;55.55;29.25;;;;;;;;;;4982971;28;20047;-87
2022/03/29 05:49:49;;;;;;;56.47;29.23;;;;;;;;;;4971803;28;20050;-87
2022/03/29 05:52:15;;;;;;;56.50;30.05;;;;;;;;;;4964985;28;20062;-87
2022/03/29 05:54:45;;;;;;;56.70;28.90;;;;;;;;;;4957910;28;20038;-87
2022/03/29 05:57:11;;;;;;;61.78;31.27;;;;;;;;;;4990907;28;20445;-89
2022/03/29 05:59:37;;;;;;;59.33;30.23;;;;;;;;;;4990323;28;20039;-86
2022/03/29 06:02:04;;;;;;;58.35;30.67;;;;;;;;;;4961837;28;20510;-87
2022/03/29 06:04:35;;;;;;;63.15;30.15;;;;;;;;;;4989178;28;20054;-87
2022/03/29 06:07:02;;;;;;;59.80;30.23;;;;;;;;;;4988221;28;20097;-87
2022/03/29 06:09:31;;;;;;;62.95;30.88;;;;;;;;;;4939758;28;20118;-87
2022/03/29 06:12:00;;;;;;;57.00;30.38;;;;;;;;;;4958161;28;20039;-89
2022/03/29 06:14:27;;;;;;;55.63;29.83;;;;;;;;;;5002693;28;20047;-87
2022/03/29 06:16:55;;;;;;;53.45;28.58;;;;;;;;;;4954606;28;20468;-86
2022/03/29 06:19:21;;;;;;;56.38;29.40;;;;;;;;;;4989200;28;20035;-87
2022/03/29 06:21:47;;;;;;;52.55;29.15;;;;;;;;;;4948801;28;20046;-86
2022/03/29 06:24:13;;;;;;;62.97;31.13;;;;;;;;;;4962249;28;20056;-87
2022/03/29 06:26:40;;;;;;;53.40;28.85;;;;;;;;;;4943413;28;20050;-87
2022/03/29 06:29:06;;;;;;;58.15;29.85;;;;;;;;;;4991399;28;20077;-87
2022/03/29 06:31:33;;;;;;;57.88;30.10;;;;;;;;;;4965509;28;20036;-90
2022/03/29 06:33:59;;;;;;;56.65;30.48;;;;;;;;;;4976332;28;20046;-89
2022/03/29 06:36:25;;;;;;;62.45;29.08;;;;;;;;;;4958799;28;20132;-89
2022/03/29 06:38:55;;;;;;;64.20;30.05;;;;;;;;;;4966590;28;20045;-87
2022/03/29 06:41:21;;;;;;;64.97;30.05;;;;;;;;;;5005374;28;20042;-90
2022/03/29 06:43:47;;;;;;;52.97;27.63;;;;;;;;;;4952765;28;20091;-87
2022/03/29 06:46:13;;;;;;;52.25;27.17;;;;;;;;;;4968653;28;20061;-87
2022/03/29 06:48:44;;;;;;;57.42;27.63;;;;;;;;;;4968764;28;20554;-88
2022/03/29 06:51:14;;;;;;;59.22;29.08;;;;;;;;;;4967172;28;20128;-90
2022/03/29 06:53:41;;;;;;;58.20;27.98;;;;;;;;;;4968622;28;20385;-88
2022/03/29 06:56:07;;;;;;;61.63;29.60;;;;;;;;;;4972831;28;20034;-87
2022/03/29 06:58:37;;;;;;;55.20;28.52;;;;;;;;;;4974234;28;20038;-88
2022/03/29 07:01:03;;;;;;;61.20;28.77;;;;;;;;;;4970537;28;20515;-87
2022/03/29 07:03:30;;;;;;;60.13;29.80;;;;;;;;;;4968910;28;20053;-87
2022/03/29 07:05:58;;;;;;;60.65;31.98;;;;;;;;;;4955890;28;20069;-87
2022/03/29 07:08:25;;;;;;;54.55;29.13;;;;;;;;;;4993041;28;20045;-87
2022/03/29 07:13:36;;;;;;;62.08;31.80;;;;;;;;;;4987399;28;20058;-90
2022/03/29 07:16:02;;;;;;;78.38;35.60;;;;;;;;;;4960587;28;20042;-87
2022/03/29 07:18:28;;;;;;;63.25;33.85;;;;;;;;;;4970677;28;20428;-88
2022/03/29 07:20:54;;;;;;;69.10;35.70;;;;;;;;;;4958154;28;20057;-87
2022/03/29 07:23:20;;;;;;;71.95;35.97;;;;;;;;;;4955565;28;20034;-87
2022/03/29 07:25:46;;;;;;;66.75;34.80;;;;;;;;;;4958207;28;20043;-87
2022/03/29 07:28:13;;;;;;;61.42;30.95;;;;;;;;;;4958187;28;20041;-87
2022/03/29 07:30:43;;;;;;;62.03;31.55;;;;;;;;;;4999346;23;20041;-86
2022/03/29 07:33:11;;;;;;;57.65;31.00;;;;;;;;;;4967981;28;20045;-87
2022/03/29 07:35:37;;;;;;;58.88;29.15;;;;;;;;;;4958097;28;20050;-87
2022/03/29 07:38:07;;;;;;;55.20;28.50;;;;;;;;;;4967984;28;20030;-87
2022/03/29 07:40:34;;;;;;;65.15;30.80;;;;;;;;;;4989387;28;20044;-86
2022/03/29 07:43:00;;;;;;;56.90;28.77;;;;;;;;;;4978483;28;20049;-87
2022/03/29 07:45:27;;;;;;;61.47;30.02;;;;;;;;;;4990925;28;20072;-88
2022/03/29 07:47:56;;;;;;;61.40;29.75;;;;;;;;;;4978751;28;20052;-87
2022/03/29 07:50:23;;;;;;;57.88;29.50;;;;;;;;;;4989409;28;20137;-87
2022/03/29 07:52:50;;;;;;;63.22;30.67;;;;;;;;;;4973386;28;20050;-87
2022/03/29 07:55:17;;;;;;;58.70;30.83;;;;;;;;;;4988406;28;20057;-87
2022/03/29 07:57:43;;;;;;;60.45;32.58;;;;;;;;;;4975273;28;20037;-87
2022/03/29 08:02:57;;;;;;;63.97;34.13;;;;;;;;;;5000730;28;20049;-86
2022/03/29 08:05:23;;;;;;;62.42;32.47;;;;;;;;;;4978920;28;20048;-86
2022/03/29 08:07:49;;;;;;;58.03;33.55;;;;;;;;;;4972697;28;20048;-87
2022/03/29 08:10:16;;;;;;;60.00;32.85;;;;;;;;;;4988792;28;20212;-86
2022/03/29 08:12:42;;;;;;;62.78;33.03;;;;;;;;;;4987090;28;20038;-87
2022/03/29 08:15:10;;;;;;;64.47;35.03;;;;;;;;;;4987659;28;20038;-87
2022/03/29 08:17:36;;;;;;;72.35;38.03;;;;;;;;;;4988817;28;20074;-87
2022/03/29 08:20:04;;;;;;;60.63;33.92;;;;;;;;;;4979632;28;20125;-87
2022/03/29 08:22:30;;;;;;;70.32;37.03;;;;;;;;;;4981885;28;20478;-87
2022/03/29 08:24:56;;;;;;;72.68;33.13;;;;;;;;;;4972365;28;20046;-87
2022/03/29 08:27:22;;;;;;;58.08;31.60;;;;;;;;;;4969683;28;20049;-87
2022/03/29 08:29:49;;;;;;;59.25;31.88;;;;;;;;;;4986848;28;20080;-87
2022/03/29 08:32:15;;;;;;;66.03;32.38;;;;;;;;;;4960529;28;20077;-87
2022/03/29 08:34:41;;;;;;;50.72;24.73;;;;;;;;;;4966961;28;20048;-87
2022/03/29 08:37:07;;;;;;;53.17;25.30;;;;;;;;;;4959045;28;20080;-88
2022/03/29 08:39:33;;;;;;;51.17;24.63;;;;;;;;;;4970303;28;20443;-86
2022/03/29 08:42:03;;;;;;;43.10;22.60;;;;;;;;;;4995638;28;20041;-87
2022/03/29 08:44:29;;;;;;;47.03;22.02;;;;;;;;;;4989606;28;20042;-87
2022/03/29 08:46:56;;;;;;;46.92;21.55;;;;;;;;;;4975407;28;20030;-87
2022/03/29 08:49:22;;;;;;;49.33;21.85;;;;;;;;;;4984017;28;20536;-87
2022/03/29 08:51:49;;;;;;;50.97;22.17;;;;;;;;;;4982922;28;20038;-87
2022/03/29 08:54:15;;;;;;;42.45;20.13;;;;;;;;;;4968765;28;20558;-87
2022/03/29 08:56:41;;;;;;;43.40;20.38;;;;;;;;;;4972292;28;20034;-87
2022/03/29 08:59:08;;;;;;;38.95;21.02;;;;;;;;;;4976414;28;20099;-87
2022/03/29 09:01:34;;;;;;;47.65;21.30;;;;;;;;;;4972421;28;20037;-87
2022/03/29 09:04:07;;;;;;;41.40;20.27;;;;;;;;;;4967781;28;20106;-88
2022/03/29 09:06:33;;;;;;;39.97;21.25;;;;;;;;;;4987827;28;20176;-87
2022/03/29 09:08:59;;;;;;;39.80;20.83;;;;;;;;;;4969227;28;20066;-87
2022/03/29 09:11:25;;;;;;;40.70;21.20;;;;;;;;;;4991258;28;20045;-87
2022/03/29 09:14:04;;;;;;;42.97;21.63;;;;;;;;;;4975028;28;20407;-87
2022/03/29 09:16:32;;;;;;;50.25;25.05;;;;;;;;;;4988372;28;20441;-87
2022/03/29 09:18:58;;;;;;;53.10;24.40;;;;;;;;;;4985490;28;20475;-88
2022/03/29 09:21:25;;;;;;;39.63;20.92;;;;;;;;;;4984539;28;20048;-88
2022/03/29 09:24:05;;;;;;;49.30;23.63;;;;;;;;;;4967468;28;20089;-87
2022/03/29 09:26:32;;;;;;;46.17;23.48;;;;;;;;;;4983931;28;20423;-86
2022/03/29 09:28:58;;;;;;;46.28;24.10;;;;;;;;;;4968986;28;20115;-87
2022/03/29 09:31:27;;;;;;;46.30;23.60;;;;;;;;;;4983054;28;20107;-87
2022/03/29 09:34:10;;;;;;;40.60;22.08;;;;;;;;;;4982805;28;20052;-87
2022/03/29 09:36:40;;;;;;;47.38;24.35;;;;;;;;;;4976815;28;20106;-87
2022/03/29 09:39:07;;;;;;;43.03;22.92;;;;;;;;;;4982600;28;20068;-88
2022/03/29 09:41:35;;;;;;;49.75;23.98;;;;;;;;;;4971577;28;20100;-88
2022/03/29 09:44:08;;;;;;;40.03;22.38;;;;;;;;;;5002623;28;20041;-86
2022/03/29 09:46:54;;;;;;;45.08;23.95;;;;;;;;;;4982714;28;20050;-87
2022/03/29 09:49:21;;;;;;;46.88;24.17;;;;;;;;;;4998505;28;20124;-87
2022/03/29 09:51:48;;;;;;;48.17;24.58;;;;;;;;;;4984927;28;20676;-87
2022/03/29 09:54:14;;;;;;;42.42;21.85;;;;;;;;;;4982687;28;20037;-88
2022/03/29 09:56:50;;;;;;;40.80;23.33;;;;;;;;;;4989716;28;20041;-86
2022/03/29 09:59:17;;;;;;;51.20;22.35;;;;;;;;;;4986535;28;20083;-87
2022/03/29 10:01:47;;;;;;;39.17;21.75;;;;;;;;;;4982678;28;20044;-88
2022/03/29 10:04:15;;;;;;;41.40;22.63;;;;;;;;;;4978733;28;20038;-87
2022/03/29 10:06:42;;;;;;;41.63;22.38;;;;;;;;;;4972091;28;20103;-87
2022/03/29 10:09:27;;;;;;;41.85;22.52;;;;;;;;;;4969944;28;20046;-87
2022/03/29 10:11:58;;;;;;;47.30;22.85;;;;;;;;;;4986961;28;20405;-88
2022/03/29 10:14:25;;;;;;;45.15;21.77;;;;;;;;;;4982566;28;20070;-88
2022/03/29 10:17:01;;;;;;;37.35;21.77;;;;;;;;;;4991389;28;20498;-88
2022/03/29 10:19:31;;;;;;;40.08;22.58;;;;;;;;;;4979867;28;20442;-87
2022/03/29 10:21:58;;;;;;;41.13;22.00;;;;;;;;;;4984071;28;20042;-88
2022/03/29 10:24:26;;;;;;;46.22;22.77;;;6.50;99.90;;;;;;4985103;28;20041;-87
2022/03/29 10:26:53;;;;;;;42.13;21.70;;;10.50;99.90;;;;;;4965587;28;20521;-87
2022/03/29 10:29:20;;;;;;;43.15;22.80;;;10.70;99.90;;;;;;4990132;28;20049;-87
2022/03/29 10:31:50;;;;;;;36.25;20.30;;;;;;;;;;4991590;28;20128;-87
2022/03/29 10:34:26;;;;;;;45.03;22.63;;;;;;;;;;4981717;28;20049;-87
2022/03/29 10:36:58;;;;;;;45.25;21.50;;;;;;;;;;4984433;28;20073;-87
2022/03/29 10:39:38;;;;;;;43.92;22.60;;;;;;;;;;4985214;28;20096;-88
2022/03/29 10:42:23;;;;;;;38.10;22.27;;;;;;;;;;4988859;28;20042;-87
2022/03/29 10:44:59;;;;;;;38.90;21.35;;;;;;;;;;4989553;28;20037;-88
2022/03/29 10:47:30;;;;;;;40.70;20.80;;;;;;;;;;4987236;28;20809;-88
2022/03/29 10:49:56;;;;;;;41.35;20.38;;;;;;;;;;4983454;28;20042;-88
2022/03/29 10:52:22;;;;;;;45.70;21.33;;;;;;;;;;4990989;28;20435;-87
2022/03/29 10:54:49;;;;;;;46.35;21.45;;;;;;;;;;4985214;28;20048;-87
2022/03/29 10:57:20;;;;;;;40.50;20.55;;;;;;;;;;4985077;28;20046;-88
2022/03/29 10:59:58;;;;;;;45.15;21.02;;;;;;;;;;4981301;28;20134;-87
2022/03/29 11:02:25;;;;;;;43.28;21.00;;;;;;;;;;4981919;28;20046;-88
2022/03/29 11:05:03;;;;;;;41.40;20.00;;;;;;;;;;4991293;28;22103;-87
2022/03/29 11:07:30;;;;;;;37.08;19.50;;;;;;;;;;4991339;28;20042;-86
2022/03/29 11:10:16;;;;;;;38.88;19.83;;;;;;;;;;4985353;28;20082;-88
2022/03/29 11:12:49;;;;;;;36.58;19.38;;;;;;;;;;4985131;28;20044;-85
2022/03/29 11:15:27;;;;;;;44.63;18.92;;;;;;;;;;4982556;28;20129;-86
2022/03/29 11:17:56;;;;;;;37.65;19.40;;;;;;;;;;4993085;28;20041;-87
2022/03/29 11:20:29;;;;;;;31.40;16.88;;;;;;;;;;4986964;28;20040;-87
2022/03/29 11:23:00;;;;;;;30.80;16.95;;;;;;;;;;4987929;28;20038;-86
2022/03/29 11:25:26;;;;;;;41.30;18.38;;;;;;;;;;4982454;28;20037;-87
2022/03/29 11:27:52;;;;;;;33.72;17.40;;;;;;;;;;4984552;28;20092;-87
2022/03/29 11:30:19;;;;;;;33.28;17.65;;;;;;;;;;4991305;28;20461;-87
2022/03/29 11:32:46;;;;;;;32.63;16.63;;;;;;;;;;4986963;28;20069;-87
2022/03/29 11:35:14;;;;;;;33.58;17.08;;;;;;;;;;4968904;28;20646;-87
2022/03/29 11:37:43;;;;;;;34.60;17.65;;;;;;;;;;4987776;28;20092;-87
2022/03/29 11:40:14;;;;;;;34.95;17.08;;;;;;;;;;4980410;28;20061;-87
2022/03/29 11:42:46;;;;;;;33.65;17.30;;;;;;;;;;4987896;28;20461;-87
2022/03/29 11:45:13;;;;;;;36.50;17.67;;;;;;;;;;4990777;28;20066;-87
2022/03/29 11:47:40;;;;;;;33.42;16.27;;;;;;;;;;4988248;28;20045;-87
2022/03/29 11:50:06;;;;;;;31.02;16.17;;;;;;;;;;5002552;28;20037;-87
2022/03/29 11:52:36;;;;;;;28.15;15.98;;;;;;;;;;4986488;28;20711;-87
2022/03/29 11:55:14;;;;;;;30.70;15.63;;;;;;;;;;4986276;28;20108;-86
2022/03/29 11:57:44;;;;;;;32.25;16.38;;;10.90;99.90;;;;;;4986690;28;20038;-86
2022/03/29 12:00:25;;;;;;;34.47;15.90;;;12.70;99.00;;;;;;4953905;28;20041;-88
2022/03/29 12:02:51;;;;;;;30.98;15.10;;;12.80;92.40;;;;;;4988009;28;20058;-87
2022/03/29 12:05:26;;;;;;;37.78;15.43;;;13.00;99.90;;;;;;4985111;28;20108;-87
2022/03/29 12:08:02;;;;;;;36.35;15.35;;;13.10;98.80;;;;;;4970499;28;20522;-86
2022/03/29 12:10:34;;;;;;;29.08;14.60;;;13.30;99.20;;;;;;4972187;28;20034;-89
2022/03/29 12:13:01;;;;;;;28.95;14.35;;;13.50;98.10;;;;;;4962743;28;20115;-86
2022/03/29 12:15:27;;;;;;;30.10;14.40;;;13.20;94.00;;;;;;4949339;28;20136;-87
2022/03/29 12:20:41;;;;;;;28.92;13.77;;;12.60;94.00;;;;;;4966537;28;20041;-88
2022/03/29 12:23:18;;;;;;;35.72;13.23;;;12.50;96.30;;;;;;4985017;28;20061;-87
2022/03/29 12:25:44;;;;;;;34.25;13.65;;;12.50;90.60;;;;;;4987914;28;20052;-87
2022/03/29 12:28:14;;;;;;;28.83;13.93;;;12.60;95.60;;;;;;4977489;28;20038;-89
2022/03/29 12:30:41;;;;;;;32.95;13.68;;;12.70;95.60;;;;;;4987241;28;20042;-89
2022/03/29 12:33:07;;;;;;;32.50;13.75;;;12.60;93.90;;;;;;4974658;28;20040;-87
2022/03/29 12:35:33;;;;;;;31.60;13.50;;;12.60;94.10;;;;;;4957212;28;20046;-87
2022/03/29 12:38:04;;;;;;;29.02;13.00;;;12.50;92.80;;;;;;4954043;28;20125;-86
2022/03/29 12:40:30;;;;;;;30.73;13.75;;;12.40;91.90;;;;;;4974545;28;20049;-86
2022/03/29 12:43:07;;;;;;;31.13;13.60;;;12.30;93.10;;;;;;4954855;28;20050;-86
2022/03/29 12:45:34;;;;;;;24.20;13.20;;;12.40;95.40;;;;;;5000834;28;20045;-86
2022/03/29 12:48:04;;;;;;;29.45;13.52;;;12.50;94.30;;;;;;4971318;28;20120;-86
2022/03/29 12:50:30;;;;;;;29.85;13.18;;;12.60;92.80;;;;;;4968426;28;20092;-85
2022/03/29 12:53:07;;;;;;;25.48;13.40;;;12.60;92.80;;;;;;4995411;28;20113;-87
2022/03/29 12:55:33;;;;;;;29.65;13.05;;;12.80;94.10;;;;;;4990064;28;20037;-87
2022/03/29 12:58:03;;;;;;;33.45;13.48;;;13.00;93.60;;;;;;4970280;28;20101;-87
2022/03/29 13:00:41;;;;;;;26.60;12.73;;;13.10;89.90;;;;;;4966517;28;20042;-86
2022/03/29 13:03:09;;;;;;;30.83;12.60;;;13.10;85.20;;;;;;5005368;28;20477;-87
2022/03/29 13:05:35;;;;;;;26.40;12.90;;;13.00;90.40;;;;;;4988574;28;20501;-86
2022/03/29 13:08:02;;;;;;;27.58;12.15;;;13.00;90.20;;;;;;4954925;28;20085;-87
2022/03/29 13:10:37;;;;;;;31.98;13.13;;;12.90;87.10;;;;;;4962961;28;20402;-87
2022/03/29 13:13:36;;;;;;;28.67;13.02;;;12.80;86.50;;;;;;5003820;28;20042;-86
2022/03/29 13:16:06;;;;;;;27.63;12.23;;;12.90;89.10;;;;;;5001310;28;20049;-86
2022/03/29 13:18:33;;;;;;;31.70;13.43;;;13.00;86.30;;;;;;4969887;28;20088;-86
2022/03/29 13:21:15;;;;;;;27.38;12.32;;;13.20;86.40;;;;;;5009712;28;20041;-86
2022/03/29 13:23:42;;;;;;;31.88;11.63;;;13.20;81.50;;;;;;4987642;28;20041;-86
2022/03/29 13:26:10;;;;;;;24.13;11.60;;;13.50;81.40;;;;;;4997374;28;20398;-86
2022/03/29 13:28:37;;;;;;;27.25;12.80;;;13.90;84.40;;;;;;4987260;28;20046;-86
2022/03/29 13:31:09;;;;;;;31.58;12.32;;;14.50;80.40;;;;;;4968810;28;20039;-86
2022/03/29 13:33:35;;;;;;;29.83;10.03;;;14.50;75.60;;;;;;4966369;28;20129;-86
2022/03/29 13:36:09;;;;;;;24.90;9.05;;;14.30;77.90;;;;;;4964639;28;20117;-86
2022/03/29 13:38:35;;;;;;;28.75;10.00;;;13.90;77.80;;;;;;4940736;28;20046;-86
2022/03/29 13:41:05;;;;;;;31.25;9.75;;;13.50;79.80;;;;;;4980445;28;20052;-87
2022/03/29 13:43:33;;;;;;;29.33;9.90;;;13.30;82.40;;;;;;4976788;28;20046;-87
2022/03/29 13:46:00;;;;;;;26.65;9.35;;;13.20;85.20;;;;;;4983483;28;20538;-87
2022/03/29 13:48:26;;;;;;;23.75;9.50;;;13.20;86.60;;;;;;4965837;28;20053;-86
2022/03/29 13:50:52;;;;;;;27.27;10.27;;;13.10;87.40;;;;;;4961071;28;20046;-86
2022/03/29 13:53:20;;;;;;;29.15;10.32;;;13.30;88.50;;;;;;4970563;28;20121;-86
2022/03/29 13:55:48;;;;;;;27.27;10.32;;;13.60;82.50;;;;;;4956419;28;20049;-88
2022/03/29 13:58:17;;;;;;;29.98;10.02;;;13.80;81.60;;;;;;4981207;28;20038;-86
2022/03/29 14:00:46;;;;;;;31.45;10.60;;;14.30;81.70;;;;;;4966535;28;20040;-87
2022/03/29 14:03:13;;;;;;;24.75;9.90;;;14.60;78.40;;;;;;4975900;28;20068;-86
2022/03/29 14:05:49;;;;;;;31.02;10.80;;;15.10;75.80;;;;;;4965387;28;20466;-87
2022/03/29 14:08:15;;;;;;;21.92;8.82;;;;;;;;;;4975271;28;20045;-88
2022/03/29 14:10:42;;;;;;;27.38;9.77;;;;;;;;;;4937568;28;20100;-89